createdAt,value
2018-11-10T00:02:09.797Z,5.90
2018-11-10T00:04:38.427Z,5.90
2018-11-10T00:07:16.987Z,5.90
2018-11-10T00:09:45.550Z,5.90
2018-11-10T00:12:14.094Z,5.90
2018-11-10T00:14:42.608Z,5.90
2018-11-10T00:17:11.266Z,5.90
2018-11-10T00:19:39.872Z,5.90
2018-11-10T00:22:12.520Z,5.90
2018-11-10T00:24:41.078Z,5.90
2018-11-10T00:27:09.672Z,5.80
2018-11-10T00:29:38.252Z,5.80
2018-11-10T00:32:06.929Z,5.80
2018-11-10T00:34:35.533Z,5.80
2018-11-10T00:37:04.099Z,5.70
2018-11-10T00:39:39.705Z,5.70
2018-11-10T00:42:08.378Z,5.70
2018-11-10T00:44:37.021Z,5.70
2018-11-10T00:47:05.641Z,5.60
2018-11-10T00:49:34.256Z,5.70
2018-11-10T00:52:02.847Z,5.70
2018-11-10T00:54:31.554Z,5.70
2018-11-10T00:57:00.139Z,5.60
2018-11-10T00:59:28.824Z,5.60
2018-11-10T01:01:57.396Z,5.60
2018-11-10T01:04:25.922Z,5.50
2018-11-10T01:06:56.590Z,5.50
2018-11-10T01:09:25.147Z,5.50
2018-11-10T01:11:53.709Z,5.60
2018-11-10T01:14:22.231Z,5.60
2018-11-10T01:16:50.763Z,5.60
2018-11-10T01:19:19.291Z,5.60
2018-11-10T01:21:54.689Z,5.70
2018-11-10T01:24:23.312Z,5.60
2018-11-10T01:26:51.839Z,5.60
2018-11-10T01:29:20.499Z,5.60
2018-11-10T01:31:49.025Z,5.60
2018-11-10T01:34:17.706Z,5.60
2018-11-10T01:36:47.312Z,5.50
2018-11-10T01:39:15.995Z,5.50
2018-11-10T01:41:44.564Z,5.40
2018-11-10T01:44:12.817Z,5.40
2018-11-10T01:46:41.090Z,5.30
2018-11-10T01:49:09.399Z,5.40
2018-11-10T01:51:37.718Z,5.40
2018-11-10T01:54:06.104Z,5.40
2018-11-10T01:56:34.389Z,5.40
2018-11-10T01:59:02.674Z,5.40
2018-11-10T02:01:30.937Z,5.40
2018-11-10T02:03:59.215Z,5.40
2018-11-10T02:06:27.502Z,5.40
2018-11-10T02:08:55.789Z,5.40
2018-11-10T02:11:24.110Z,5.40
2018-11-10T02:13:52.409Z,5.40
2018-11-10T02:16:20.713Z,5.40
2018-11-10T02:18:49.042Z,5.40
2018-11-10T02:21:17.488Z,5.40
2018-11-10T02:23:45.841Z,5.40
2018-11-10T02:26:14.180Z,5.50
2018-11-10T02:28:42.516Z,5.60
2018-11-10T02:31:10.826Z,5.70
2018-11-10T02:33:39.141Z,5.80
2018-11-10T02:36:07.426Z,5.90
2018-11-10T02:38:35.751Z,5.80
2018-11-10T02:41:14.885Z,5.80
2018-11-10T02:43:43.210Z,5.90
2018-11-10T02:46:11.492Z,6.00
2018-11-10T02:48:39.817Z,6.10
2018-11-10T02:51:08.113Z,6.10
2018-11-10T02:53:36.416Z,6.10
2018-11-10T02:56:04.962Z,6.30
2018-11-10T02:58:33.312Z,6.40
2018-11-10T03:01:01.636Z,6.50
2018-11-10T03:03:29.960Z,6.50
2018-11-10T03:05:58.257Z,6.50
2018-11-10T03:08:26.528Z,6.60
2018-11-10T03:10:54.881Z,6.60
2018-11-10T03:13:23.091Z,6.60
2018-11-10T03:15:55.464Z,6.70
2018-11-10T03:18:23.794Z,6.70
2018-11-10T03:20:52.078Z,6.90
2018-11-10T03:23:20.354Z,6.90
2018-11-10T03:25:48.656Z,6.80
2018-11-10T03:28:16.919Z,6.80
2018-11-10T03:30:47.324Z,6.90
2018-11-10T03:33:15.605Z,7.00
2018-11-10T03:35:43.877Z,7.10
2018-11-10T03:38:12.210Z,7.10
2018-11-10T03:40:40.523Z,7.20
2018-11-10T03:43:08.884Z,7.20
2018-11-10T03:45:37.164Z,7.30
2018-11-10T03:48:05.502Z,7.20
2018-11-10T03:50:33.799Z,7.30
2018-11-10T03:53:02.115Z,7.30
2018-11-10T03:55:30.400Z,7.40
2018-11-10T03:57:58.704Z,7.30
2018-11-10T04:00:26.978Z,7.20
2018-11-10T04:02:55.270Z,7.20
2018-11-10T04:05:23.680Z,7.30
2018-11-10T04:07:51.968Z,7.30
2018-11-10T04:10:20.266Z,7.20
2018-11-10T04:12:48.584Z,7.20
2018-11-10T04:15:16.928Z,7.20
2018-11-10T04:17:45.221Z,7.20
2018-11-10T04:20:13.686Z,7.20
2018-11-10T04:22:41.961Z,7.20
2018-11-10T04:25:11.098Z,7.20
2018-11-10T04:27:39.448Z,7.20
2018-11-10T04:30:09.033Z,7.30
2018-11-10T04:32:37.568Z,7.30
2018-11-10T04:35:09.496Z,7.40
2018-11-10T04:37:37.890Z,7.40
2018-11-10T04:40:07.126Z,7.40
2018-11-10T04:42:35.428Z,7.40
2018-11-10T04:45:03.803Z,7.40
2018-11-10T04:47:32.103Z,7.40
2018-11-10T04:50:00.375Z,7.50
2018-11-10T04:52:28.652Z,7.50
2018-11-10T04:55:04.510Z,7.50
2018-11-10T04:57:32.806Z,7.50
2018-11-10T05:00:01.168Z,7.50
2018-11-10T05:02:29.461Z,7.60
2018-11-10T05:04:57.765Z,7.50
2018-11-10T05:07:26.073Z,7.60
2018-11-10T05:09:55.474Z,7.60
2018-11-10T05:12:23.754Z,7.50
2018-11-10T05:14:52.036Z,7.60
2018-11-10T05:17:20.306Z,7.60
2018-11-10T05:19:48.636Z,7.50
2018-11-10T05:22:16.940Z,7.50
2018-11-10T05:24:46.344Z,7.40
2018-11-10T05:27:14.687Z,7.30
2018-11-10T05:29:42.966Z,7.40
2018-11-10T05:32:11.346Z,7.40
2018-11-10T05:34:39.662Z,7.50
2018-11-10T05:37:07.963Z,7.60
2018-11-10T05:39:36.202Z,7.50
2018-11-10T05:42:04.569Z,7.60
2018-11-10T05:44:32.946Z,7.40
2018-11-10T05:47:01.268Z,7.30
2018-11-10T05:49:30.650Z,7.20
2018-11-10T05:51:58.964Z,7.30
2018-11-10T05:54:27.327Z,7.30
2018-11-10T05:56:55.637Z,7.30
2018-11-10T05:59:23.976Z,7.40
2018-11-10T06:01:52.281Z,7.40
2018-11-10T06:04:20.593Z,7.40
2018-11-10T06:06:48.945Z,7.50
2018-11-10T06:09:17.490Z,7.60
2018-11-10T06:11:45.795Z,7.60
2018-11-10T06:14:14.091Z,7.60
2018-11-10T06:16:42.435Z,7.60
2018-11-10T06:19:10.745Z,7.70
2018-11-10T06:21:41.061Z,7.80
2018-11-10T06:24:09.344Z,7.80
2018-11-10T06:26:37.666Z,7.80
2018-11-10T06:29:06.022Z,7.90
2018-11-10T06:31:34.318Z,7.90
2018-11-10T06:34:02.626Z,7.90
2018-11-10T06:36:30.921Z,8.00
2018-11-10T06:38:59.207Z,7.90
2018-11-10T06:41:27.611Z,7.90
2018-11-10T06:43:55.856Z,8.00
2018-11-10T06:46:24.205Z,8.00
2018-11-10T06:48:52.496Z,8.00
2018-11-10T06:51:20.810Z,8.00
2018-11-10T06:53:49.165Z,8.10
2018-11-10T06:56:17.462Z,8.10
2018-11-10T06:58:45.812Z,8.20
2018-11-10T07:01:14.168Z,8.30
2018-11-10T07:03:42.486Z,8.30
2018-11-10T07:06:10.777Z,8.30
2018-11-10T07:08:41.155Z,8.30
2018-11-10T07:11:09.450Z,8.40
2018-11-10T07:13:38.622Z,8.40
2018-11-10T07:16:06.878Z,8.40
2018-11-10T07:18:35.213Z,8.40
2018-11-10T07:21:03.499Z,8.40
2018-11-10T07:23:31.770Z,8.50
2018-11-10T07:26:00.139Z,8.60
2018-11-10T07:28:28.412Z,8.60
2018-11-10T07:30:56.720Z,8.60
2018-11-10T07:33:25.101Z,8.70
2018-11-10T07:35:53.334Z,8.60
2018-11-10T07:38:21.659Z,8.50
2018-11-10T07:40:49.971Z,8.60
2018-11-10T07:43:18.311Z,8.80
2018-11-10T07:45:46.646Z,8.80
2018-11-10T07:48:14.958Z,8.90
2018-11-10T07:50:43.252Z,9.10
2018-11-10T07:53:11.604Z,9.10
2018-11-10T07:55:39.864Z,9.20
2018-11-10T07:58:08.125Z,9.40
2018-11-10T08:00:36.353Z,9.50
2018-11-10T08:03:04.819Z,9.60
2018-11-10T08:05:33.215Z,9.70
2018-11-10T08:08:01.513Z,9.80
2018-11-10T08:10:29.835Z,9.90
2018-11-10T08:12:58.163Z,10.00
2018-11-10T08:15:26.512Z,10.00
2018-11-10T08:17:54.832Z,10.10
2018-11-10T08:20:23.081Z,10.20
2018-11-10T08:22:51.400Z,10.30
2018-11-10T08:25:19.712Z,10.30
2018-11-10T08:27:48.010Z,10.30
2018-11-10T08:30:16.327Z,10.30
2018-11-10T08:32:44.980Z,10.40
2018-11-10T08:35:14.131Z,10.50
2018-11-10T08:37:42.462Z,10.40
2018-11-10T08:40:13.579Z,10.30
2018-11-10T08:42:41.933Z,10.30
2018-11-10T08:45:11.887Z,10.30
2018-11-10T08:47:40.524Z,10.30
2018-11-10T08:50:09.868Z,10.40
2018-11-10T08:52:38.172Z,10.40
2018-11-10T08:55:07.232Z,10.30
2018-11-10T08:57:35.610Z,10.40
2018-11-10T09:00:04.227Z,10.60
2018-11-10T09:02:32.519Z,10.80
2018-11-10T09:05:00.820Z,10.90
2018-11-10T09:07:29.138Z,11.00
2018-11-10T09:09:57.484Z,11.10
2018-11-10T09:12:25.717Z,11.20
2018-11-10T09:14:56.198Z,11.30
2018-11-10T09:17:24.486Z,11.30
2018-11-10T09:19:52.786Z,11.50
2018-11-10T09:22:21.211Z,11.60
2018-11-10T09:24:49.501Z,11.70
2018-11-10T09:27:17.891Z,11.80
2018-11-10T09:29:46.244Z,12.00
2018-11-10T09:32:14.604Z,12.20
2018-11-10T09:34:42.920Z,12.50
2018-11-10T09:37:11.255Z,12.70
2018-11-10T09:39:39.623Z,12.90
2018-11-10T09:42:08.016Z,13.00
2018-11-10T09:44:36.228Z,13.10
2018-11-10T09:47:05.261Z,13.20
2018-11-10T09:49:33.507Z,13.30
2018-11-10T09:52:01.844Z,13.40
2018-11-10T09:54:30.162Z,13.60
2018-11-10T09:56:58.478Z,13.50
2018-11-10T09:59:26.719Z,13.70
2018-11-10T10:01:55.126Z,13.90
2018-11-10T10:04:25.325Z,14.10
2018-11-10T10:06:53.726Z,14.20
2018-11-10T10:09:22.063Z,14.30
2018-11-10T10:11:50.403Z,14.30
2018-11-10T10:14:18.708Z,14.30
2018-11-10T10:16:47.022Z,14.30
2018-11-10T10:19:15.288Z,14.30
2018-11-10T10:21:43.644Z,14.30
2018-11-10T10:24:12.016Z,14.40
2018-11-10T10:26:40.353Z,14.50
2018-11-10T10:29:09.058Z,14.60
2018-11-10T10:31:37.264Z,14.70
2018-11-10T10:34:05.783Z,14.70
2018-11-10T10:36:33.996Z,15.00
2018-11-10T10:39:02.339Z,15.10
2018-11-10T10:41:30.682Z,15.30
2018-11-10T10:43:58.997Z,15.40
2018-11-10T10:46:27.344Z,15.50
2018-11-10T10:48:56.384Z,15.70
2018-11-10T10:51:24.524Z,15.60
2018-11-10T10:53:52.835Z,15.90
2018-11-10T10:56:21.184Z,15.80
2018-11-10T10:58:49.503Z,15.90
2018-11-10T11:01:23.108Z,16.20
2018-11-10T11:03:56.843Z,16.20
2018-11-10T11:06:25.267Z,16.10
2018-11-10T11:08:53.608Z,16.20
2018-11-10T11:11:21.859Z,16.20
2018-11-10T11:13:50.200Z,16.30
2018-11-10T11:16:18.762Z,16.40
2018-11-10T11:18:47.064Z,16.60
2018-11-10T11:21:15.391Z,16.80
2018-11-10T11:23:43.716Z,16.90
2018-11-10T11:26:12.037Z,16.60
2018-11-10T11:28:40.319Z,16.80
2018-11-10T11:31:08.690Z,16.90
2018-11-10T11:33:37.024Z,17.00
2018-11-10T11:36:05.404Z,17.30
2018-11-10T11:38:33.703Z,17.10
2018-11-10T11:41:02.116Z,17.30
2018-11-10T11:43:35.100Z,17.50
2018-11-10T11:46:03.743Z,17.40
2018-11-10T11:48:32.552Z,17.40
2018-11-10T11:51:01.091Z,17.50
2018-11-10T11:53:29.451Z,17.40
2018-11-10T11:55:57.691Z,17.50
2018-11-10T11:58:26.124Z,17.60
2018-11-10T12:01:12.828Z,17.70
2018-11-10T12:03:41.252Z,17.80
2018-11-10T12:06:09.554Z,17.70
2018-11-10T12:08:37.866Z,17.60
2018-11-10T12:11:06.231Z,17.70
2018-11-10T12:13:40.335Z,17.80
2018-11-10T12:16:08.600Z,17.80
2018-11-10T12:18:37.033Z,17.90
2018-11-10T12:21:05.675Z,18.10
2018-11-10T12:23:33.969Z,18.20
2018-11-10T12:26:02.584Z,18.40
2018-11-10T12:28:32.970Z,18.50
2018-11-10T12:31:01.265Z,18.60
2018-11-10T12:33:29.594Z,18.70
2018-11-10T12:35:57.948Z,18.70
2018-11-10T12:38:26.281Z,18.70
2018-11-10T12:40:54.564Z,18.90
2018-11-10T12:43:22.867Z,18.90
2018-11-10T12:45:51.184Z,18.90
2018-11-10T12:48:19.539Z,18.90
2018-11-10T12:50:47.855Z,18.90
2018-11-10T12:53:16.165Z,18.90
2018-11-10T12:55:44.465Z,19.00
2018-11-10T12:58:12.821Z,19.00
2018-11-10T13:00:52.222Z,19.10
2018-11-10T13:03:20.524Z,19.10
2018-11-10T13:05:48.798Z,19.00
2018-11-10T13:08:17.202Z,18.90
2018-11-10T13:10:45.450Z,19.00
2018-11-10T13:13:14.816Z,18.90
2018-11-10T13:15:44.000Z,19.00
2018-11-10T13:18:12.321Z,19.00
2018-11-10T13:20:40.614Z,18.90
2018-11-10T13:23:08.883Z,18.80
2018-11-10T13:25:37.150Z,18.80
2018-11-10T13:28:05.589Z,18.80
2018-11-10T13:30:33.890Z,18.60
2018-11-10T13:33:02.241Z,18.50
2018-11-10T13:35:30.524Z,18.50
2018-11-10T13:37:58.891Z,18.40
2018-11-10T13:40:27.102Z,18.30
2018-11-10T13:42:56.492Z,18.30
2018-11-10T13:45:24.763Z,18.20
2018-11-10T13:47:53.042Z,18.20
2018-11-10T13:50:21.332Z,18.20
2018-11-10T13:52:50.057Z,18.20
2018-11-10T13:55:17.975Z,18.40
2018-11-10T13:57:46.348Z,18.40
2018-11-10T14:00:18.127Z,18.50
2018-11-10T14:02:46.426Z,18.50
2018-11-10T14:05:14.989Z,18.60
2018-11-10T14:07:43.314Z,18.70
2018-11-10T14:10:13.048Z,18.80
2018-11-10T14:12:42.274Z,18.80
2018-11-10T14:15:11.514Z,18.70
2018-11-10T14:17:40.678Z,18.80
2018-11-10T14:20:10.977Z,18.70
2018-11-10T14:22:39.273Z,18.70
2018-11-10T14:25:09.139Z,18.60
2018-11-10T14:27:38.189Z,18.60
2018-11-10T14:30:08.421Z,18.50
2018-11-10T14:32:36.766Z,18.40
2018-11-10T14:35:06.689Z,18.30
2018-11-10T14:37:35.107Z,18.10
2018-11-10T14:40:03.586Z,18.00
2018-11-10T14:42:31.920Z,17.80
2018-11-10T14:45:00.274Z,17.80
2018-11-10T14:47:28.581Z,17.70
2018-11-10T14:49:56.867Z,17.60
2018-11-10T14:52:25.158Z,17.50
2018-11-10T14:54:53.462Z,17.40
2018-11-10T14:57:21.725Z,17.20
2018-11-10T14:59:50.064Z,17.00
2018-11-10T15:02:18.373Z,16.90
2018-11-10T15:04:46.685Z,16.80
2018-11-10T15:07:15.014Z,16.70
2018-11-10T15:09:43.313Z,16.60
2018-11-10T15:12:17.525Z,16.40
2018-11-10T15:14:45.708Z,16.40
2018-11-10T15:17:13.973Z,16.30
2018-11-10T15:19:43.377Z,16.30
2018-11-10T15:22:11.653Z,16.10
2018-11-10T15:24:40.935Z,16.10
2018-11-10T15:27:12.339Z,16.00
2018-11-10T15:29:40.709Z,15.90
2018-11-10T15:32:09.070Z,15.80
2018-11-10T15:34:37.650Z,15.70
2018-11-10T15:37:06.311Z,15.60
2018-11-10T15:39:35.982Z,15.50
2018-11-10T15:42:05.078Z,15.40
2018-11-10T15:44:33.523Z,15.30
2018-11-10T15:47:01.899Z,15.20
2018-11-10T15:49:30.240Z,15.10
2018-11-10T15:51:58.595Z,15.00
2018-11-10T15:54:30.622Z,15.00
2018-11-10T15:56:58.963Z,14.90
2018-11-10T15:59:27.264Z,14.80
2018-11-10T16:01:55.571Z,14.70
2018-11-10T16:04:23.998Z,14.60
2018-11-10T16:06:52.351Z,14.60
2018-11-10T16:09:20.724Z,14.60
2018-11-10T16:11:48.962Z,14.50
2018-11-10T16:14:17.257Z,14.40
2018-11-10T16:16:45.537Z,14.30
2018-11-10T16:19:13.907Z,14.30
2018-11-10T16:21:42.227Z,14.30
2018-11-10T16:24:10.552Z,14.20
2018-11-10T16:26:38.858Z,14.10
2018-11-10T16:29:06.922Z,14.00
2018-11-10T16:31:35.289Z,13.90
2018-11-10T16:34:03.701Z,13.90
2018-11-10T16:36:32.005Z,13.90
2018-11-10T16:39:02.416Z,13.80
2018-11-10T16:41:30.673Z,13.70
2018-11-10T16:43:59.011Z,13.70
2018-11-10T16:46:27.350Z,13.70
2018-11-10T16:48:55.683Z,13.70
2018-11-10T16:51:24.044Z,13.70
2018-11-10T16:53:53.383Z,13.70
2018-11-10T16:56:21.793Z,13.70
2018-11-10T16:58:50.119Z,13.60
2018-11-10T17:01:18.386Z,13.70
2018-11-10T17:03:46.789Z,13.60
2018-11-10T17:06:15.122Z,13.60
2018-11-10T17:08:44.541Z,13.60
2018-11-10T17:11:13.646Z,13.60
2018-11-10T17:13:42.154Z,13.60
2018-11-10T17:16:10.312Z,13.50
2018-11-10T17:18:38.739Z,13.50
2018-11-10T17:21:07.005Z,13.50
2018-11-10T17:23:35.794Z,13.50
2018-11-10T17:26:04.273Z,13.50
2018-11-10T17:28:32.575Z,13.50
2018-11-10T17:31:00.877Z,13.40
2018-11-10T17:33:29.233Z,13.30
2018-11-10T17:35:57.607Z,13.20
2018-11-10T17:38:25.948Z,13.20
2018-11-10T17:40:54.277Z,13.20
2018-11-10T17:43:22.655Z,13.20
2018-11-10T17:45:51.057Z,13.20
2018-11-10T17:48:19.470Z,13.20
2018-11-10T17:50:47.767Z,13.20
2018-11-10T17:53:16.220Z,13.30
2018-11-10T17:55:44.580Z,13.20
2018-11-10T17:58:12.957Z,13.10
2018-11-10T18:00:41.334Z,13.10
2018-11-10T18:03:09.682Z,13.20
2018-11-10T18:05:38.007Z,13.20
2018-11-10T18:08:06.808Z,13.20
2018-11-10T18:10:35.138Z,13.10
2018-11-10T18:13:05.559Z,13.10
2018-11-10T18:15:33.864Z,13.00
2018-11-10T18:18:02.217Z,13.00
2018-11-10T18:20:30.604Z,13.00
2018-11-10T18:22:58.968Z,13.00
2018-11-10T18:25:27.414Z,13.00
2018-11-10T18:27:55.701Z,12.90
2018-11-10T18:30:23.971Z,12.90
2018-11-10T18:32:52.322Z,12.80
2018-11-10T18:35:20.661Z,12.80
2018-11-10T18:37:48.992Z,12.80
2018-11-10T18:40:17.323Z,12.80
2018-11-10T18:42:45.643Z,12.80
2018-11-10T18:45:13.975Z,12.80
2018-11-10T18:47:42.734Z,12.80
2018-11-10T18:50:14.945Z,12.80
2018-11-10T18:52:43.260Z,12.80
2018-11-10T18:55:12.208Z,12.70
2018-11-10T18:57:40.796Z,12.60
2018-11-10T19:00:11.196Z,12.70
2018-11-10T19:02:39.747Z,12.70
2018-11-10T19:05:09.232Z,12.60
2018-11-10T19:07:37.678Z,12.50
2018-11-10T19:10:07.761Z,12.50
2018-11-10T19:12:36.108Z,12.60
2018-11-10T19:15:04.803Z,12.50
2018-11-10T19:17:33.125Z,12.40
2018-11-10T19:20:01.450Z,12.40
2018-11-10T19:22:29.766Z,12.30
2018-11-10T19:24:58.135Z,12.30
2018-11-10T19:27:26.417Z,12.40
2018-11-10T19:29:54.878Z,12.40
2018-11-10T19:32:23.256Z,12.30
2018-11-10T19:34:51.477Z,12.40
2018-11-10T19:37:19.768Z,12.40
2018-11-10T19:39:48.026Z,12.40
2018-11-10T19:42:16.302Z,12.40
2018-11-10T19:44:44.685Z,12.30
2018-11-10T19:47:13.120Z,12.30
2018-11-10T19:49:41.443Z,12.40
2018-11-10T19:52:10.075Z,12.30
2018-11-10T19:54:38.090Z,12.20
2018-11-10T19:57:07.513Z,12.20
2018-11-10T19:59:35.850Z,12.30
2018-11-10T20:02:04.185Z,12.20
2018-11-10T20:04:32.555Z,12.30
2018-11-10T20:07:00.848Z,12.20
2018-11-10T20:09:29.234Z,12.20
2018-11-10T20:11:57.553Z,12.20
2018-11-10T20:14:25.955Z,12.20
2018-11-10T20:16:54.366Z,12.10
2018-11-10T20:19:22.777Z,12.20
2018-11-10T20:21:51.055Z,12.10
2018-11-10T20:24:19.362Z,12.10
2018-11-10T20:26:47.651Z,12.10
2018-11-10T20:29:16.084Z,12.10
2018-11-10T20:31:44.365Z,12.10
2018-11-10T20:34:12.727Z,12.10
2018-11-10T20:36:41.051Z,12.00
2018-11-10T20:39:10.220Z,12.00
2018-11-10T20:41:38.936Z,12.00
2018-11-10T20:44:07.807Z,11.90
2018-11-10T20:46:36.133Z,11.80
2018-11-10T20:49:04.747Z,11.70
2018-11-10T20:51:33.085Z,11.80
2018-11-10T20:54:01.393Z,11.90
2018-11-10T20:56:29.739Z,11.90
2018-11-10T20:58:58.051Z,11.90
2018-11-10T21:01:26.368Z,11.90
2018-11-10T21:03:54.781Z,11.90
2018-11-10T21:06:23.081Z,11.80
2018-11-10T21:08:51.415Z,11.70
2018-11-10T21:11:19.826Z,11.70
2018-11-10T21:13:48.220Z,11.70
2018-11-10T21:16:16.644Z,11.60
2018-11-10T21:18:44.965Z,11.50
2018-11-10T21:21:13.295Z,11.40
2018-11-10T21:23:41.562Z,11.40
2018-11-10T21:26:09.931Z,11.40
2018-11-10T21:28:38.256Z,11.30
2018-11-10T21:31:06.533Z,11.30
2018-11-10T21:33:34.919Z,11.40
2018-11-10T21:36:03.139Z,11.40
2018-11-10T21:38:31.532Z,11.50
2018-11-10T21:40:59.887Z,11.50
2018-11-10T21:43:28.225Z,11.50
2018-11-10T21:45:56.478Z,11.60
2018-11-10T21:48:24.819Z,11.60
2018-11-10T21:50:53.100Z,11.70
2018-11-10T21:53:21.421Z,11.60
2018-11-10T21:55:49.674Z,11.60
2018-11-10T21:58:18.066Z,11.60
2018-11-10T22:00:46.392Z,11.50
2018-11-10T22:03:14.669Z,11.50
2018-11-10T22:05:42.941Z,11.50
2018-11-10T22:08:11.305Z,11.40
2018-11-10T22:10:39.622Z,11.40
2018-11-10T22:13:07.944Z,11.40
2018-11-10T22:15:37.393Z,11.50
2018-11-10T22:18:05.658Z,11.50
2018-11-10T22:20:33.980Z,11.50
2018-11-10T22:23:02.365Z,11.50
2018-11-10T22:25:30.637Z,11.40
2018-11-10T22:27:58.938Z,11.30
2018-11-10T22:30:27.275Z,11.30
2018-11-10T22:32:55.618Z,11.30
2018-11-10T22:35:24.003Z,11.20
2018-11-10T22:37:52.246Z,11.30
2018-11-10T22:40:21.625Z,11.30
2018-11-10T22:42:49.971Z,11.30
2018-11-10T22:45:19.686Z,11.30
2018-11-10T22:47:48.103Z,11.20
2018-11-10T22:50:18.808Z,11.20
2018-11-10T22:52:47.131Z,11.20
2018-11-10T22:55:15.437Z,11.20
2018-11-10T22:57:43.738Z,11.20
2018-11-10T23:00:15.928Z,11.20
2018-11-10T23:02:46.207Z,11.10
2018-11-10T23:05:14.734Z,11.10
2018-11-10T23:07:43.018Z,11.10
2018-11-10T23:10:11.584Z,11.00
2018-11-10T23:12:39.951Z,11.10
2018-11-10T23:15:08.329Z,11.00
2018-11-10T23:17:36.657Z,11.10
2018-11-10T23:20:06.400Z,11.00
2018-11-10T23:22:35.047Z,11.10
2018-11-10T23:25:03.476Z,11.00
2018-11-10T23:27:31.950Z,11.00
2018-11-10T23:30:00.373Z,11.00
2018-11-10T23:32:28.765Z,11.00
2018-11-10T23:34:57.130Z,11.00
2018-11-10T23:37:25.409Z,11.00
2018-11-10T23:39:53.698Z,11.00
2018-11-10T23:42:21.989Z,11.10
2018-11-10T23:44:50.353Z,11.10
2018-11-10T23:47:18.731Z,11.10
2018-11-10T23:49:47.025Z,11.10
2018-11-10T23:52:15.394Z,11.10
2018-11-10T23:54:43.726Z,11.20
2018-11-10T23:57:12.042Z,11.20
2018-11-10T23:59:40.363Z,11.10
